Dale, Texas
Current Conditions -  °F | °C
As of 7:15 PM on Friday 28 Nov 2014 (Local Time) from KHYI Reporting Station
Clear Clear  
Wind Chill: 61°   Ceiling: Unl
Heat Index: 61°   Visibility: 10mi
Dew Point: 45°   Wind: 9mph
Humidity: 55%   Direction: 180°S
Pressure: 30.12"   Gusts: NA
Location:  29.93°N, 97.57°W
Report Text: KHYI 290115Z 18008KT 10SM CLR 16/07 A3012 RMK AO1
Loading
Personal Weather Stations






























Interactive Weather Map New forecast layout! Learn more

10-Day Weather Forecast

Advertisements
Track Severe Weather on mobile